createdAt,value
2018-07-09T00:00:34.431Z,77.58
2018-07-09T00:01:34.992Z,77.86
2018-07-09T00:02:35.557Z,78.25
2018-07-09T00:03:36.117Z,77.95
2018-07-09T00:04:36.685Z,78.15
2018-07-09T00:05:37.264Z,78.25
2018-07-09T00:06:37.828Z,78.25
2018-07-09T00:07:38.390Z,78.82
2018-07-09T00:08:38.952Z,78.72
2018-07-09T00:09:39.498Z,79.07
2018-07-09T00:10:40.055Z,79.26
2018-07-09T00:11:40.608Z,79.36
2018-07-09T00:12:41.161Z,79.36
2018-07-09T00:13:41.714Z,79.45
2018-07-09T00:14:42.275Z,79.36
2018-07-09T00:15:42.825Z,79.74
2018-07-09T00:16:43.378Z,79.74
2018-07-09T00:17:43.949Z,79.83
2018-07-09T00:18:44.495Z,80.03
2018-07-09T00:19:45.048Z,80.12
2018-07-09T00:20:45.600Z,80.03
2018-07-09T00:21:46.149Z,80.12
2018-07-09T00:22:46.692Z,80.32
2018-07-09T00:23:47.249Z,79.93
2018-07-09T00:24:47.800Z,80.70
2018-07-09T00:25:48.355Z,80.79
2018-07-09T00:26:48.910Z,80.99
2018-07-09T00:27:49.492Z,80.89
2018-07-09T00:28:50.025Z,81.18
2018-07-09T00:29:50.588Z,81.46
2018-07-09T00:30:51.138Z,81.66
2018-07-09T00:31:51.691Z,81.18
2018-07-09T00:32:52.247Z,81.46
2018-07-09T00:33:52.802Z,81.62
2018-07-09T00:34:53.356Z,81.81
2018-07-09T00:35:53.908Z,82.09
2018-07-09T00:36:54.461Z,82.67
2018-07-09T00:37:55.015Z,82.76
2018-07-09T00:38:55.567Z,82.57
2018-07-09T00:39:56.114Z,82.19
2018-07-09T00:40:56.669Z,82.57
2018-07-09T00:41:57.227Z,82.86
2018-07-09T00:42:57.774Z,83.25
2018-07-09T00:43:58.325Z,83.15
2018-07-09T00:44:58.878Z,83.34
2018-07-09T00:45:59.432Z,83.44
2018-07-09T00:46:59.978Z,84.11
2018-07-09T00:48:00.535Z,83.92
2018-07-09T00:49:01.093Z,84.20
2018-07-09T00:50:01.638Z,84.39
2018-07-09T00:51:02.239Z,84.78
2018-07-09T00:52:02.737Z,84.68
2018-07-09T00:53:03.292Z,84.58
2018-07-09T00:54:03.844Z,84.97
2018-07-09T00:55:04.405Z,84.88
2018-07-09T00:56:04.954Z,84.68
2018-07-09T00:57:05.506Z,84.97
2018-07-09T00:58:06.062Z,84.78
2018-07-09T00:59:06.619Z,84.97
2018-07-09T01:00:07.171Z,85.16
2018-07-09T01:01:07.727Z,85.25
2018-07-09T01:02:08.282Z,85.25
2018-07-09T01:03:08.833Z,85.35
2018-07-09T01:04:09.390Z,84.88
2018-07-09T01:05:09.946Z,84.97
2018-07-09T01:06:10.501Z,85.64
2018-07-09T01:07:11.051Z,85.45
2018-07-09T01:08:11.604Z,85.83
2018-07-09T01:09:12.158Z,86.02
2018-07-09T01:10:12.714Z,86.12
2018-07-09T01:11:13.309Z,86.21
2018-07-09T01:12:13.814Z,86.36
2018-07-09T01:13:14.372Z,86.65
2018-07-09T01:14:14.921Z,87.13
2018-07-09T01:15:15.477Z,87.13
2018-07-09T01:16:16.030Z,86.84
2018-07-09T01:17:16.583Z,87.41
2018-07-09T01:18:17.155Z,87.61
2018-07-09T01:19:17.691Z,87.41
2018-07-09T01:20:18.272Z,87.70
2018-07-09T01:21:18.822Z,88.47
2018-07-09T01:22:19.354Z,87.70
2018-07-09T01:23:19.904Z,88.28
2018-07-09T01:24:20.458Z,87.99
2018-07-09T01:25:21.011Z,87.99
2018-07-09T01:26:21.564Z,88.18
2018-07-09T01:27:22.120Z,88.66
2018-07-09T01:28:22.672Z,89.04
2018-07-09T01:29:23.228Z,89.04
2018-07-09T01:30:23.785Z,89.14
2018-07-09T01:31:24.335Z,89.04
2018-07-09T01:32:24.889Z,89.04
2018-07-09T01:33:25.442Z,89.23
2018-07-09T01:34:25.998Z,89.04
2018-07-09T01:35:26.552Z,89.33
2018-07-09T01:36:27.108Z,89.04
2018-07-09T01:37:27.663Z,89.14
2018-07-09T01:38:28.226Z,89.04
2018-07-09T01:39:28.767Z,89.33
2018-07-09T01:40:29.321Z,89.23
2018-07-09T01:41:29.876Z,90.00
2018-07-09T01:42:30.430Z,90.29
2018-07-09T01:43:30.981Z,90.19
2018-07-09T01:44:31.535Z,89.72
2018-07-09T01:45:32.082Z,90.00
2018-07-09T01:46:32.635Z,90.09
2018-07-09T01:47:33.191Z,90.29
2018-07-09T01:48:33.744Z,90.48
2018-07-09T01:49:34.321Z,90.77
2018-07-09T01:50:34.852Z,90.48
2018-07-09T01:51:35.403Z,91.34
2018-07-09T01:52:35.953Z,91.39
2018-07-09T01:53:36.532Z,91.44
2018-07-09T01:54:37.065Z,91.58
2018-07-09T01:55:37.614Z,91.63
2018-07-09T01:56:38.168Z,91.39
2018-07-09T01:57:38.723Z,91.58
2018-07-09T01:58:39.277Z,92.06
2018-07-09T01:59:39.831Z,92.44
2018-07-09T02:00:40.379Z,92.54
2018-07-09T02:01:40.925Z,92.73
2018-07-09T02:02:41.478Z,93.21
2018-07-09T02:03:42.031Z,92.92
2018-07-09T02:04:42.578Z,93.69
2018-07-09T02:05:43.125Z,93.30
2018-07-09T02:06:43.680Z,93.59
2018-07-09T02:07:44.236Z,93.69
2018-07-09T02:08:44.799Z,93.79
2018-07-09T02:09:45.342Z,93.79
2018-07-09T02:10:45.898Z,93.98
2018-07-09T02:11:46.447Z,94.17
2018-07-09T02:12:46.998Z,94.36
2018-07-09T02:13:47.547Z,94.07
2018-07-09T02:14:48.103Z,94.26
2018-07-09T02:15:48.655Z,93.88
2018-07-09T02:16:49.209Z,94.55
2018-07-09T02:17:49.755Z,94.84
2018-07-09T02:18:50.305Z,94.84
2018-07-09T02:19:50.850Z,94.65
2018-07-09T02:20:51.397Z,94.55
2018-07-09T02:21:51.955Z,94.65
2018-07-09T02:22:52.508Z,94.65
2018-07-09T02:23:53.060Z,94.74
2018-07-09T02:24:53.615Z,95.41
2018-07-09T02:25:54.166Z,95.31
2018-07-09T02:26:54.722Z,95.31
2018-07-09T02:27:55.276Z,94.93
2018-07-09T02:28:55.830Z,95.79
2018-07-09T02:29:56.385Z,95.70
2018-07-09T02:30:56.937Z,95.70
2018-07-09T02:31:57.481Z,95.31
2018-07-09T02:32:58.030Z,95.41
2018-07-09T02:33:58.583Z,95.31
2018-07-09T02:34:59.133Z,95.79
2018-07-09T02:35:59.687Z,95.79
2018-07-09T02:37:00.239Z,95.75
2018-07-09T02:38:00.786Z,95.61
2018-07-09T02:39:01.344Z,96.22
2018-07-09T02:40:01.900Z,95.94
2018-07-09T02:41:02.449Z,96.18
2018-07-09T02:42:03.002Z,96.22
2018-07-09T02:43:03.549Z,96.22
2018-07-09T02:44:04.099Z,97.13
2018-07-09T02:45:04.646Z,96.84
2018-07-09T02:46:05.201Z,96.51
2018-07-09T02:47:05.759Z,96.61
2018-07-09T02:48:06.300Z,96.70
2018-07-09T02:49:06.859Z,96.51
2018-07-09T02:50:07.405Z,96.80
2018-07-09T02:51:07.961Z,96.51
2018-07-09T02:52:08.515Z,96.80
2018-07-09T02:53:09.067Z,96.80
2018-07-09T02:54:09.622Z,97.08
2018-07-09T02:55:10.172Z,97.18
2018-07-09T02:56:10.735Z,97.28
2018-07-09T02:57:11.282Z,97.56
2018-07-09T02:58:11.833Z,97.85
2018-07-09T02:59:12.386Z,97.75
2018-07-09T03:00:12.954Z,97.85
2018-07-09T03:01:13.648Z,97.66
2018-07-09T03:02:14.046Z,97.75
2018-07-09T03:03:14.597Z,98.14
2018-07-09T03:04:15.156Z,98.61
2018-07-09T03:05:15.707Z,98.43
2018-07-09T03:06:16.264Z,98.24
2018-07-09T03:07:16.815Z,98.52
2018-07-09T03:08:17.372Z,98.43
2018-07-09T03:09:17.928Z,98.90
2018-07-09T03:10:18.482Z,98.81
2018-07-09T03:11:19.035Z,98.90
2018-07-09T03:12:19.590Z,99.10
2018-07-09T03:13:20.143Z,99.19
2018-07-09T03:14:20.696Z,99.33
2018-07-09T03:15:21.258Z,98.95
2018-07-09T03:16:21.806Z,99.33
2018-07-09T03:17:22.360Z,99.29
2018-07-09T03:18:22.919Z,98.81
2018-07-09T03:19:23.472Z,99.29
2018-07-09T03:20:24.032Z,99.57
2018-07-09T03:21:24.582Z,99.43
2018-07-09T03:22:25.140Z,99.52
2018-07-09T03:23:25.695Z,99.48
2018-07-09T03:24:26.249Z,99.67
2018-07-09T03:25:26.799Z,99.43
2018-07-09T03:26:27.345Z,99.38
2018-07-09T03:27:27.897Z,99.43
2018-07-09T03:28:28.454Z,99.52
2018-07-09T03:29:29.016Z,99.52
2018-07-09T03:30:29.568Z,99.33
2018-07-09T03:31:30.126Z,99.90
2018-07-09T03:32:30.682Z,99.90
2018-07-09T03:33:31.241Z,99.99
2018-07-09T03:34:31.800Z,99.52
2018-07-09T03:35:32.358Z,99.43
2018-07-09T03:36:32.918Z,99.33
2018-07-09T03:37:33.470Z,99.99
2018-07-09T03:38:34.030Z,99.62
2018-07-09T03:39:34.583Z,99.99
2018-07-09T03:40:35.132Z,99.99
2018-07-09T03:41:35.693Z,99.99
2018-07-09T03:42:36.239Z,99.99
2018-07-09T03:43:36.797Z,99.99
2018-07-09T03:44:37.357Z,99.99
2018-07-09T03:45:37.913Z,99.99
2018-07-09T03:46:38.471Z,99.99
2018-07-09T03:47:39.027Z,99.99
2018-07-09T03:48:39.580Z,99.99
2018-07-09T03:49:40.139Z,99.99
2018-07-09T03:50:40.686Z,99.99
2018-07-09T03:51:41.247Z,99.99
2018-07-09T03:52:41.803Z,99.99
2018-07-09T03:53:42.356Z,99.99
2018-07-09T03:54:42.910Z,99.99
2018-07-09T03:55:43.471Z,99.99
2018-07-09T03:56:44.025Z,99.99
2018-07-09T03:57:44.581Z,99.99
2018-07-09T03:58:45.131Z,99.99
2018-07-09T03:59:45.691Z,99.99
2018-07-09T04:00:46.249Z,99.99
2018-07-09T04:01:46.802Z,99.99
2018-07-09T04:02:47.361Z,99.99
2018-07-09T04:03:47.918Z,99.99
2018-07-09T04:04:48.467Z,99.99
2018-07-09T04:05:49.022Z,99.99
2018-07-09T04:06:49.577Z,99.99
2018-07-09T04:07:50.134Z,99.99
2018-07-09T04:08:50.693Z,99.99
2018-07-09T04:09:51.253Z,99.99
2018-07-09T04:10:51.805Z,99.99
2018-07-09T04:11:52.355Z,99.99
2018-07-09T04:12:52.915Z,99.99
2018-07-09T04:13:53.478Z,99.99
2018-07-09T04:14:54.042Z,99.99
2018-07-09T04:15:54.599Z,99.99
2018-07-09T04:16:55.157Z,99.99
2018-07-09T04:17:55.724Z,99.99
2018-07-09T04:18:56.274Z,99.99
2018-07-09T04:19:56.834Z,99.99
2018-07-09T04:20:57.463Z,99.99
2018-07-09T04:21:57.946Z,99.99
2018-07-09T04:22:58.512Z,99.99
2018-07-09T04:23:59.054Z,99.99
2018-07-09T04:24:59.618Z,99.99
2018-07-09T04:26:00.174Z,99.99
2018-07-09T04:27:00.732Z,99.99
2018-07-09T04:28:01.286Z,99.99
2018-07-09T04:29:01.841Z,99.99
2018-07-09T04:30:02.404Z,99.99
2018-07-09T04:31:02.963Z,99.99
2018-07-09T04:32:03.523Z,99.99
2018-07-09T04:33:04.086Z,99.99
2018-07-09T04:34:04.642Z,99.99
2018-07-09T04:35:05.192Z,99.99
2018-07-09T04:36:05.750Z,99.99
2018-07-09T04:37:06.309Z,99.99
2018-07-09T04:38:06.863Z,99.99
2018-07-09T04:39:07.429Z,99.99
2018-07-09T04:40:07.984Z,99.99
2018-07-09T04:41:08.554Z,99.99
2018-07-09T04:42:09.103Z,99.99
2018-07-09T04:43:09.684Z,99.99
2018-07-09T04:44:10.212Z,99.99
2018-07-09T04:45:10.783Z,99.99
2018-07-09T04:46:11.336Z,99.99
2018-07-09T04:47:11.898Z,99.99
2018-07-09T04:48:12.456Z,99.99
2018-07-09T04:49:13.021Z,99.99
2018-07-09T04:50:13.578Z,99.99
2018-07-09T04:51:14.140Z,99.99
2018-07-09T04:52:14.701Z,99.99
2018-07-09T04:53:15.257Z,99.99
2018-07-09T04:54:15.818Z,99.99
2018-07-09T04:55:16.373Z,99.99
2018-07-09T04:56:16.930Z,99.99
2018-07-09T04:57:17.482Z,99.99
2018-07-09T04:58:18.043Z,99.82
2018-07-09T04:59:18.601Z,97.95
2018-07-09T05:00:19.164Z,96.37
2018-07-09T05:01:19.728Z,95.36
2018-07-09T05:02:20.294Z,93.20
2018-07-09T05:03:20.858Z,90.84
2018-07-09T05:04:21.459Z,89.40
2018-07-09T05:05:21.988Z,89.17
2018-07-09T05:06:22.551Z,90.18
2018-07-09T05:07:23.118Z,91.05
2018-07-09T05:08:23.683Z,91.09
2018-07-09T05:09:24.250Z,91.04
2018-07-09T05:10:24.817Z,89.26
2018-07-09T05:11:25.384Z,87.57
2018-07-09T05:12:25.949Z,86.80
2018-07-09T05:13:26.519Z,85.31
2018-07-09T05:14:27.092Z,84.06
2018-07-09T05:15:27.661Z,83.09
2018-07-09T05:16:28.233Z,82.75
2018-07-09T05:17:28.795Z,82.90
2018-07-09T05:18:29.357Z,82.90
2018-07-09T05:19:29.930Z,82.75
2018-07-09T05:20:30.498Z,82.65
2018-07-09T05:21:31.067Z,81.70
2018-07-09T05:22:31.635Z,81.79
2018-07-09T05:23:32.209Z,81.98
2018-07-09T05:24:32.777Z,82.81
2018-07-09T05:25:33.345Z,82.61
2018-07-09T05:26:33.914Z,83.53
2018-07-09T05:27:34.484Z,84.50
2018-07-09T05:28:35.046Z,84.98
2018-07-09T05:29:35.621Z,84.73
2018-07-09T05:30:36.189Z,83.91
2018-07-09T05:31:36.760Z,82.94
2018-07-09T05:32:37.330Z,81.83
2018-07-09T05:33:37.897Z,80.62
2018-07-09T05:34:38.466Z,79.75
2018-07-09T05:35:39.040Z,78.83
2018-07-09T05:36:39.609Z,78.44
2018-07-09T05:37:40.188Z,77.81
2018-07-09T05:38:40.752Z,76.55
2018-07-09T05:39:41.327Z,76.26
2018-07-09T05:40:41.899Z,76.42
2018-07-09T05:41:42.670Z,77.19
2018-07-09T05:42:43.247Z,77.38
2018-07-09T05:43:43.814Z,77.46
2018-07-09T05:44:44.385Z,76.01
2018-07-09T05:45:44.961Z,74.99
2018-07-09T05:46:45.533Z,74.35
2018-07-09T05:47:46.119Z,73.13
2018-07-09T05:48:46.693Z,71.91
2018-07-09T05:49:47.264Z,70.94
2018-07-09T05:50:47.843Z,70.65
2018-07-09T05:51:48.426Z,70.75
2018-07-09T05:52:48.990Z,70.10
2018-07-09T05:53:49.564Z,69.08
2018-07-09T05:54:50.132Z,68.11
2018-07-09T05:55:50.700Z,68.11
2018-07-09T05:56:51.276Z,67.37
2018-07-09T05:57:51.867Z,66.78
2018-07-09T05:58:52.462Z,66.72
2018-07-09T05:59:53.002Z,66.14
2018-07-09T06:00:53.574Z,65.01
2018-07-09T06:01:54.158Z,64.56
2018-07-09T06:02:54.726Z,63.78
2018-07-09T06:03:55.309Z,63.78
2018-07-09T06:04:55.888Z,63.33
2018-07-09T06:05:56.463Z,62.95
2018-07-09T06:06:57.042Z,62.01
2018-07-09T06:07:57.618Z,62.01
2018-07-09T06:08:58.193Z,61.61
2018-07-09T06:09:58.790Z,61.65
2018-07-09T06:10:59.373Z,60.87
2018-07-09T06:11:59.956Z,60.87
2018-07-09T06:13:00.528Z,60.68
2018-07-09T06:14:01.104Z,61.84
2018-07-09T06:15:01.738Z,60.94
2018-07-09T06:16:02.298Z,61.49
2018-07-09T06:17:02.887Z,61.61
2018-07-09T06:18:03.465Z,61.13
2018-07-09T06:19:04.057Z,61.13
2018-07-09T06:20:04.638Z,61.81
2018-07-09T06:21:05.215Z,61.49
2018-07-09T06:22:05.793Z,62.49
2018-07-09T06:23:06.368Z,63.92
2018-07-09T06:24:06.954Z,63.72
2018-07-09T06:25:07.518Z,64.01
2018-07-09T06:26:08.089Z,64.04
2018-07-09T06:27:08.665Z,63.49
2018-07-09T06:28:09.240Z,62.43
2018-07-09T06:29:09.816Z,63.01
2018-07-09T06:30:10.391Z,62.85
2018-07-09T06:31:10.964Z,62.16
2018-07-09T06:32:11.538Z,62.26
2018-07-09T06:33:12.123Z,62.36
2018-07-09T06:34:12.702Z,61.88
2018-07-09T06:35:13.278Z,61.81
2018-07-09T06:36:13.847Z,61.22
2018-07-09T06:37:14.424Z,60.74
2018-07-09T06:38:15.008Z,60.87
2018-07-09T06:39:15.584Z,60.58
2018-07-09T06:40:16.160Z,59.74
2018-07-09T06:41:16.732Z,59.44
2018-07-09T06:42:17.306Z,59.34
2018-07-09T06:43:17.888Z,58.95
2018-07-09T06:44:18.468Z,58.31
2018-07-09T06:45:19.051Z,58.21
2018-07-09T06:46:19.625Z,58.14
2018-07-09T06:47:20.201Z,57.39
2018-07-09T06:48:20.811Z,57.46
2018-07-09T06:49:21.358Z,57.92
2018-07-09T06:50:21.936Z,58.11
2018-07-09T06:51:22.513Z,57.46
2018-07-09T06:52:23.098Z,57.75
2018-07-09T06:53:23.675Z,57.65
2018-07-09T06:54:24.251Z,57.49
2018-07-09T06:55:24.823Z,56.87
2018-07-09T06:56:25.400Z,57.43
2018-07-09T06:57:25.977Z,57.53
2018-07-09T06:58:26.561Z,57.46
2018-07-09T06:59:27.138Z,57.00
2018-07-09T07:00:27.717Z,56.45
2018-07-09T07:01:28.287Z,55.66
2018-07-09T07:02:28.860Z,55.27
2018-07-09T07:03:29.438Z,54.52
2018-07-09T07:04:30.019Z,54.03
2018-07-09T07:05:30.596Z,54.33
2018-07-09T07:06:31.175Z,54.23
2018-07-09T07:07:31.764Z,53.97
2018-07-09T07:08:32.336Z,53.48
2018-07-09T07:09:32.915Z,53.48
2018-07-09T07:10:33.496Z,52.99
2018-07-09T07:11:34.073Z,53.31
2018-07-09T07:12:34.647Z,52.53
2018-07-09T07:13:35.225Z,53.02
2018-07-09T07:14:35.804Z,53.21
2018-07-09T07:15:36.381Z,53.09
2018-07-09T07:16:36.969Z,53.09
2018-07-09T07:17:37.547Z,51.04
2018-07-09T07:18:38.125Z,51.80
2018-07-09T07:19:38.705Z,51.90
2018-07-09T07:20:39.312Z,52.16
2018-07-09T07:21:39.866Z,53.62
2018-07-09T07:22:40.465Z,53.72
2018-07-09T07:23:41.248Z,53.52
2018-07-09T07:24:41.828Z,53.33
2018-07-09T07:25:42.401Z,53.16
2018-07-09T07:26:42.986Z,52.99
2018-07-09T07:27:43.685Z,52.44
2018-07-09T07:28:44.378Z,53.09
2018-07-09T07:29:44.954Z,52.99
2018-07-09T07:30:45.533Z,51.43
2018-07-09T07:31:46.118Z,51.24
2018-07-09T07:32:46.794Z,51.02
2018-07-09T07:33:47.266Z,51.97
2018-07-09T07:34:47.840Z,52.38
2018-07-09T07:35:48.431Z,52.58
2018-07-09T07:36:49.021Z,52.28
2018-07-09T07:37:49.578Z,51.90
2018-07-09T07:38:50.167Z,51.99
2018-07-09T07:39:50.740Z,52.36
2018-07-09T07:40:51.317Z,52.98
2018-07-09T07:41:51.904Z,53.45
2018-07-09T07:42:52.493Z,53.45
2018-07-09T07:43:53.060Z,53.45
2018-07-09T07:44:53.741Z,53.18
2018-07-09T07:45:54.209Z,53.01
2018-07-09T07:46:54.782Z,52.72
2018-07-09T07:47:55.348Z,52.06
2018-07-09T07:48:55.980Z,52.06
2018-07-09T07:49:56.556Z,52.53
2018-07-09T07:50:57.136Z,52.75
2018-07-09T07:51:57.725Z,52.45
2018-07-09T07:52:58.292Z,52.45
2018-07-09T07:53:58.873Z,52.19
2018-07-09T07:54:59.451Z,51.99
2018-07-09T07:56:00.030Z,51.87
2018-07-09T07:57:00.606Z,52.14
2018-07-09T07:58:01.184Z,52.45
2018-07-09T07:59:01.761Z,51.99
2018-07-09T08:00:02.332Z,51.61
2018-07-09T08:01:02.913Z,51.70
2018-07-09T08:02:03.492Z,50.85
2018-07-09T08:03:04.067Z,50.46
2018-07-09T08:04:04.639Z,50.38
2018-07-09T08:05:05.215Z,50.19
2018-07-09T08:06:05.794Z,50.38
2018-07-09T08:07:06.416Z,50.12
2018-07-09T08:08:07.041Z,49.76
2018-07-09T08:09:07.609Z,49.39
2018-07-09T08:10:08.262Z,48.61
2018-07-09T08:11:11.222Z,48.12
2018-07-09T08:13:00.542Z,49.34
2018-07-09T08:13:27.979Z,49.32
2018-07-09T08:14:11.648Z,50.58
2018-07-09T08:15:12.232Z,49.80
2018-07-09T08:16:12.811Z,49.88
2018-07-09T08:17:13.402Z,50.78
2018-07-09T08:18:13.967Z,50.02
2018-07-09T08:19:14.549Z,49.61
2018-07-09T08:20:15.182Z,49.63
2018-07-09T08:21:15.759Z,49.15
2018-07-09T08:22:16.341Z,48.97
2018-07-09T08:23:16.915Z,48.29
2018-07-09T08:24:17.492Z,48.54
2018-07-09T08:25:18.133Z,47.19
2018-07-09T08:26:18.649Z,47.83
2018-07-09T08:27:19.271Z,48.10
2018-07-09T08:28:19.851Z,48.17
2018-07-09T08:29:20.430Z,47.78
2018-07-09T08:30:21.017Z,48.44
2018-07-09T08:31:21.709Z,48.34
2018-07-09T08:32:22.158Z,48.83
2018-07-09T08:33:22.736Z,48.17
2018-07-09T08:34:23.308Z,48.14
2018-07-09T08:35:23.886Z,48.34
2018-07-09T08:36:24.456Z,48.51
2018-07-09T08:37:25.026Z,48.22
2018-07-09T08:38:25.602Z,47.92
2018-07-09T08:39:26.181Z,47.83
2018-07-09T08:40:26.765Z,48.02
2018-07-09T08:41:27.326Z,48.02
2018-07-09T08:42:27.901Z,48.05
2018-07-09T08:43:28.554Z,48.02
2018-07-09T08:44:29.132Z,47.27
2018-07-09T08:45:29.709Z,47.34
2018-07-09T08:46:30.289Z,47.83
2018-07-09T08:47:30.921Z,47.83
2018-07-09T08:48:31.432Z,48.32
2018-07-09T08:49:32.013Z,48.05
2018-07-09T08:50:32.595Z,46.97
2018-07-09T08:51:33.174Z,46.86
2018-07-09T08:52:33.749Z,46.78
2018-07-09T08:53:34.322Z,46.39
2018-07-09T08:54:34.903Z,46.59
2018-07-09T08:55:35.483Z,46.86
2018-07-09T08:56:36.057Z,47.36
2018-07-09T08:57:36.656Z,46.59
2018-07-09T08:58:37.278Z,46.88
2018-07-09T08:59:37.853Z,47.44
2018-07-09T09:00:38.418Z,48.29
2018-07-09T09:01:39.004Z,48.39
2018-07-09T09:02:39.571Z,47.92
2018-07-09T09:03:40.161Z,47.56
2018-07-09T09:04:40.732Z,46.70
2018-07-09T09:05:41.336Z,46.78
2018-07-09T09:06:41.966Z,46.88
2018-07-09T09:07:42.542Z,47.17
2018-07-09T09:08:43.117Z,47.19
2018-07-09T09:09:43.691Z,47.22
2018-07-09T09:10:44.268Z,47.09
2018-07-09T09:11:44.896Z,47.66
2018-07-09T09:12:45.497Z,47.07
2018-07-09T09:13:46.074Z,47.56
2018-07-09T09:14:46.649Z,47.07
2018-07-09T09:15:47.226Z,48.14
2018-07-09T09:16:47.800Z,47.17
2018-07-09T09:17:48.376Z,47.95
2018-07-09T09:18:48.952Z,48.44
2018-07-09T09:19:49.522Z,47.58
2018-07-09T09:20:50.098Z,47.90
2018-07-09T09:21:50.682Z,47.46
2018-07-09T09:22:51.254Z,46.78
2018-07-09T09:23:51.880Z,46.36
2018-07-09T09:24:52.448Z,46.36
2018-07-09T09:25:53.027Z,46.36
2018-07-09T09:26:53.596Z,46.34
2018-07-09T09:27:54.171Z,46.07
2018-07-09T09:28:54.740Z,46.66
2018-07-09T09:29:55.318Z,46.39
2018-07-09T09:30:55.893Z,46.85
2018-07-09T09:31:56.480Z,47.41
2018-07-09T09:32:57.058Z,47.71
2018-07-09T09:33:57.628Z,48.02
2018-07-09T09:34:58.212Z,47.27
2018-07-09T09:35:58.794Z,46.97
2018-07-09T09:36:59.388Z,46.56
2018-07-09T09:37:59.961Z,47.22
2018-07-09T09:39:00.522Z,47.22
2018-07-09T09:40:01.100Z,47.14
2018-07-09T09:41:01.698Z,47.05
2018-07-09T09:42:02.248Z,47.27
2018-07-09T09:43:02.874Z,47.17
2018-07-09T09:44:03.399Z,47.17
2018-07-09T09:45:04.003Z,47.05
2018-07-09T09:46:04.587Z,47.14
2018-07-09T09:47:05.166Z,47.34
2018-07-09T09:48:05.777Z,46.95
2018-07-09T09:49:06.353Z,47.24
2018-07-09T09:50:06.926Z,47.05
2018-07-09T09:51:07.506Z,46.92
2018-07-09T09:52:08.098Z,48.00
2018-07-09T09:53:08.679Z,48.17
2018-07-09T09:54:09.261Z,48.46
2018-07-09T09:55:09.834Z,48.36
2018-07-09T09:56:10.404Z,48.17
2018-07-09T09:57:10.981Z,48.17
2018-07-09T09:58:11.556Z,48.56
2018-07-09T09:59:12.134Z,48.00
2018-07-09T10:00:12.709Z,47.58
2018-07-09T10:01:13.278Z,48.00
2018-07-09T10:02:13.887Z,47.90
2018-07-09T10:03:14.500Z,47.02
2018-07-09T10:04:15.075Z,47.41
2018-07-09T10:05:15.654Z,47.58
2018-07-09T10:06:16.237Z,47.49
2018-07-09T10:07:16.866Z,48.34
2018-07-09T10:08:17.513Z,48.46
2018-07-09T10:09:18.149Z,48.07
2018-07-09T10:10:18.726Z,48.34
2018-07-09T10:11:19.417Z,48.56
2018-07-09T10:12:19.920Z,48.17
2018-07-09T10:13:20.485Z,47.97
2018-07-09T10:14:21.070Z,48.36
2018-07-09T10:15:21.637Z,47.97
2018-07-09T10:16:22.214Z,48.00
2018-07-09T10:17:22.793Z,47.22
2018-07-09T10:18:23.376Z,46.92
2018-07-09T10:19:23.959Z,47.31
2018-07-09T10:20:24.531Z,47.05
2018-07-09T10:21:25.102Z,47.29
2018-07-09T10:22:25.680Z,47.02
2018-07-09T10:23:26.268Z,46.34
2018-07-09T10:24:26.824Z,46.44
2018-07-09T10:25:27.439Z,46.34
2018-07-09T10:26:28.135Z,46.26
2018-07-09T10:27:28.715Z,46.17
2018-07-09T10:28:29.304Z,46.14
2018-07-09T10:29:29.888Z,46.26
2018-07-09T10:30:30.542Z,46.17
2018-07-09T10:31:31.133Z,46.26
2018-07-09T10:32:31.796Z,46.29
2018-07-09T10:33:32.388Z,46.36
2018-07-09T10:34:32.966Z,46.09
2018-07-09T10:35:33.536Z,45.94
2018-07-09T10:36:34.138Z,45.16
2018-07-09T10:37:34.715Z,45.33
2018-07-09T10:38:35.293Z,45.23
2018-07-09T10:39:35.905Z,45.36
2018-07-09T10:40:36.445Z,45.37
2018-07-09T10:41:37.019Z,44.89
2018-07-09T10:42:37.606Z,44.79
2018-07-09T10:43:38.223Z,45.33
2018-07-09T10:44:38.805Z,45.12
2018-07-09T10:45:39.365Z,45.43
2018-07-09T10:46:39.948Z,44.96
2018-07-09T10:47:40.533Z,45.18
2018-07-09T10:48:41.202Z,44.49
2018-07-09T10:49:41.774Z,44.98
2018-07-09T10:50:42.400Z,44.30
2018-07-09T10:51:42.950Z,44.40
2018-07-09T10:52:43.888Z,44.81
2018-07-09T10:53:44.502Z,44.57
2018-07-09T10:54:45.155Z,45.26
2018-07-09T10:55:45.785Z,44.74
2018-07-09T10:56:46.355Z,44.84
2018-07-09T10:57:46.923Z,45.04
2018-07-09T10:58:47.534Z,45.31
2018-07-09T10:59:48.089Z,45.31
2018-07-09T11:00:48.693Z,45.58
2018-07-09T11:01:49.235Z,45.61
2018-07-09T11:02:49.836Z,45.21
2018-07-09T11:03:50.388Z,45.19
2018-07-09T11:04:50.963Z,44.97
2018-07-09T11:05:51.538Z,45.65
2018-07-09T11:06:52.119Z,46.02
2018-07-09T11:07:52.691Z,46.41
2018-07-09T11:08:53.265Z,46.24
2018-07-09T11:09:53.855Z,45.95
2018-07-09T11:10:54.516Z,46.07
2018-07-09T11:11:55.091Z,46.07
2018-07-09T11:12:55.666Z,45.80
2018-07-09T11:13:56.241Z,45.85
2018-07-09T11:14:56.822Z,46.04
2018-07-09T11:15:57.398Z,46.22
2018-07-09T11:16:57.971Z,46.63
2018-07-09T11:17:58.547Z,45.56
2018-07-09T11:18:59.126Z,45.41
2018-07-09T11:19:59.707Z,44.74
2018-07-09T11:21:00.294Z,44.84
2018-07-09T11:22:00.881Z,45.43
2018-07-09T11:23:01.469Z,44.84
2018-07-09T11:24:02.038Z,45.41
2018-07-09T11:25:02.609Z,45.68
2018-07-09T11:26:03.193Z,45.75
2018-07-09T11:27:03.786Z,45.48
2018-07-09T11:28:04.356Z,45.21
2018-07-09T11:29:04.929Z,45.04
2018-07-09T11:30:05.599Z,44.94
2018-07-09T11:31:06.163Z,44.57
2018-07-09T11:32:06.757Z,44.40
2018-07-09T11:33:07.327Z,43.84
2018-07-09T11:34:07.918Z,43.66
2018-07-09T11:35:08.490Z,43.63
2018-07-09T11:36:09.124Z,43.24
2018-07-09T11:37:09.654Z,43.84
2018-07-09T11:38:10.230Z,43.89
2018-07-09T11:39:10.798Z,44.30
2018-07-09T11:40:11.410Z,43.23
2018-07-09T11:41:11.968Z,43.32
2018-07-09T11:42:12.597Z,43.71
2018-07-09T11:43:13.130Z,43.03
2018-07-09T11:44:13.705Z,42.36
2018-07-09T11:45:14.298Z,42.31
2018-07-09T11:46:14.869Z,42.21
2018-07-09T11:47:15.461Z,42.13
2018-07-09T11:48:16.099Z,41.64
2018-07-09T11:49:16.680Z,42.41
2018-07-09T11:50:17.266Z,42.43
2018-07-09T11:51:17.839Z,42.85
2018-07-09T11:52:18.417Z,43.91
2018-07-09T11:53:19.008Z,44.65
2018-07-09T11:54:19.588Z,45.68
2018-07-09T11:55:20.152Z,46.36
2018-07-09T11:56:20.740Z,46.04
2018-07-09T11:57:21.321Z,46.34
2018-07-09T11:58:21.902Z,46.83
2018-07-09T11:59:22.510Z,46.66
2018-07-09T12:00:23.089Z,46.11
2018-07-09T12:01:23.668Z,45.06
2018-07-09T12:02:24.253Z,43.84
2018-07-09T12:03:24.829Z,42.90
2018-07-09T12:04:25.420Z,42.25
2018-07-09T12:05:26.007Z,41.86
2018-07-09T12:06:26.577Z,42.23
2018-07-09T12:07:27.148Z,42.70
2018-07-09T12:08:27.728Z,43.44
2018-07-09T12:09:28.314Z,43.84
2018-07-09T12:10:28.894Z,44.23
2018-07-09T12:11:29.527Z,44.81
2018-07-09T12:12:30.042Z,44.49
2018-07-09T12:13:30.622Z,44.42
2018-07-09T12:14:31.194Z,43.88
2018-07-09T12:15:31.770Z,43.29
2018-07-09T12:16:32.356Z,43.68
2018-07-09T12:17:32.927Z,43.48
2018-07-09T12:18:33.514Z,43.66
2018-07-09T12:19:34.073Z,43.58
2018-07-09T12:20:34.655Z,43.56
2018-07-09T12:21:35.297Z,43.34
2018-07-09T12:22:35.830Z,43.84
2018-07-09T12:23:36.396Z,43.73
2018-07-09T12:24:36.979Z,44.57
2018-07-09T12:25:37.551Z,44.89
2018-07-09T12:26:38.114Z,44.77
2018-07-09T12:27:38.701Z,44.77
2018-07-09T12:28:39.282Z,45.45
2018-07-09T12:29:39.860Z,45.37
2018-07-09T12:30:40.449Z,44.89
2018-07-09T12:31:41.016Z,44.98
2018-07-09T12:32:41.597Z,44.87
2018-07-09T12:33:42.168Z,44.48
2018-07-09T12:34:42.742Z,45.45
2018-07-09T12:35:43.316Z,45.36
2018-07-09T12:36:43.969Z,45.28
2018-07-09T12:37:44.550Z,45.16
2018-07-09T12:38:45.135Z,45.36
2018-07-09T12:39:45.718Z,45.92
2018-07-09T12:40:46.293Z,46.11
2018-07-09T12:41:46.892Z,46.19
2018-07-09T12:42:47.479Z,46.48
2018-07-09T12:43:48.098Z,46.46
2018-07-09T12:44:48.659Z,46.66
2018-07-09T12:45:49.228Z,47.05
2018-07-09T12:46:49.810Z,47.12
2018-07-09T12:47:50.389Z,47.39
2018-07-09T12:48:50.982Z,47.80
2018-07-09T12:49:51.586Z,47.12
2018-07-09T12:50:52.146Z,47.14
2018-07-09T12:51:52.734Z,46.36
2018-07-09T12:52:53.289Z,46.66
2018-07-09T12:53:53.863Z,46.58
2018-07-09T12:54:54.448Z,46.60
2018-07-09T12:55:55.020Z,46.50
2018-07-09T12:56:55.598Z,46.48
2018-07-09T12:57:56.173Z,47.27
2018-07-09T12:58:56.747Z,46.78
2018-07-09T12:59:57.321Z,46.78